Time;durP1;ratioP1;P1;durP2;ratioP2;P2;SDS_P1;SDS_P2;PMS_P1;PMS_P2;Temp;Humidity;BMP_temperature;BMP_pressure;BME280_temperature;BME280_humidity;BME280_pressure;Samples;Min_cycle;Max_cycle;Signal;HPM_P1;HPM_P2
2022/07/31 00:00:47;;;;;;;10.63;9.63;;;;;;;20.86;100.00;94353.78;5092183;28;20277;-62
2022/07/31 00:03:13;;;;;;;12.98;9.88;;;;;;;20.82;100.00;94331.91;5092543;28;20202;-62
2022/07/31 00:05:38;;;;;;;11.45;10.30;;;;;;;20.84;100.00;94335.09;5092142;28;20697;-64
2022/07/31 00:08:04;;;;;;;13.27;11.82;;;;;;;20.75;100.00;94331.09;5092498;28;20192;-65
2022/07/31 00:10:30;;;;;;;11.65;10.55;;;;;;;20.74;100.00;94331.31;5074062;28;20254;-62
2022/07/31 00:12:55;;;;;;;13.05;11.35;;;;;;;20.70;100.00;94327.53;5074043;28;20192;-62
2022/07/31 00:15:21;;;;;;;12.10;10.90;;;;;;;21.00;100.00;94346.78;5092057;28;20287;-63
2022/07/31 00:17:47;;;;;;;15.13;12.90;;;;;;;21.02;100.00;94342.25;5092284;28;20177;-63
2022/07/31 00:20:15;;;;;;;14.18;12.60;;;;;;;20.83;100.00;94332.69;5091829;28;20277;-63
2022/07/31 00:22:42;;;;;;;12.85;11.60;;;;;;;20.73;100.00;94329.72;5092247;28;20188;-65
2022/07/31 00:25:09;;;;;;;14.95;12.82;;;;;;;20.65;100.00;94342.81;5091893;28;20572;-65
2022/07/31 00:27:34;;;;;;;17.63;13.48;;;;;;;20.66;100.00;94347.00;5073794;28;20188;-65
2022/07/31 00:30:00;;;;;;;16.92;13.30;;;;;;;20.66;100.00;94345.22;5073787;28;20585;-64
2022/07/31 00:32:25;;;;;;;16.02;13.48;;;;;;;20.72;100.00;94356.56;5091908;28;20559;-63
2022/07/31 00:34:58;;;;;;;16.17;14.38;;;;;;;20.61;100.00;94359.72;5092119;28;20188;-64
2022/07/31 00:37:23;;;;;;;16.50;14.70;;;;;;;20.27;100.00;94346.97;5073506;28;20227;-64
2022/07/31 00:39:49;;;;;;;18.85;16.85;;;;;;;20.30;100.00;94352.53;5091846;28;20184;-62
2022/07/31 00:42:19;;;;;;;16.38;14.75;;;;;;;20.48;100.00;94360.50;5091639;28;20278;-62
2022/07/31 00:44:45;;;;;;;18.15;16.25;;;;;;;20.56;100.00;94360.31;5091747;28;20180;-62
2022/07/31 00:47:10;;;;;;;18.25;16.25;;;;;;;20.27;100.00;94352.13;5091821;28;20215;-64
2022/07/31 00:49:36;;;;;;;19.40;16.33;;;;;;;20.33;100.00;94348.75;5091855;28;20195;-63
2022/07/31 00:52:01;;;;;;;16.92;14.93;;;;;;;20.44;100.00;94354.13;5091564;28;20228;-66
2022/07/31 00:54:27;;;;;;;17.42;15.68;;;;;;;20.49;100.00;94358.72;5091655;28;20180;-62
2022/07/31 00:56:52;;;;;;;18.83;15.13;;;;;;;20.49;100.00;94361.28;5091658;28;20333;-62
2022/07/31 00:59:18;;;;;;;16.83;15.02;;;;;;;20.26;100.00;94351.31;5073383;28;20196;-63
2022/07/31 01:01:43;;;;;;;17.67;15.75;;;;;;;20.55;100.00;94370.84;5091420;28;20681;-62
2022/07/31 01:04:08;;;;;;;16.48;14.43;;;;;;;20.28;100.00;94361.47;5091479;28;20192;-63
2022/07/31 01:06:34;;;;;;;16.85;14.80;;;;;;;20.35;100.00;94360.50;5090681;28;20219;-61
2022/07/31 01:08:59;;;;;;;14.88;13.50;;;;;;;20.26;100.00;94363.47;5091731;28;20200;-63
2022/07/31 01:11:51;;;;;;;14.95;13.38;;;;;;;20.06;100.00;94364.16;5091117;28;20231;-61
2022/07/31 01:14:20;;;;;;;16.55;13.15;;;;;;;20.09;100.00;94376.69;5079589;28;20208;-62
2022/07/31 01:16:48;;;;;;;15.05;13.57;;;;;;;20.00;100.00;94384.78;5091164;28;20198;-64
2022/07/31 01:19:23;;;;;;;15.75;14.25;;;;;;;19.87;100.00;94375.22;5073167;28;20222;-64
2022/07/31 01:21:58;;;;;;;14.07;12.68;;;;;;;19.70;100.00;94378.31;5073089;28;20204;-62
2022/07/31 01:24:26;;;;;;;16.30;14.43;;;;;;;19.92;100.00;94374.63;5091169;28;20191;-65
2022/07/31 01:27:02;;;;;;;15.98;14.27;;;;;;;20.04;100.00;94371.31;5072717;28;20735;-65
2022/07/31 01:29:41;;;;;;;15.05;12.70;;;;;;;20.29;100.00;94363.84;5091072;28;20180;-65
2022/07/31 01:32:15;;;;;;;13.73;12.52;;;;;;;20.24;100.00;94363.63;5091041;28;20234;-64
2022/07/31 01:34:48;;;;;;;14.02;12.45;;;;;;;20.32;100.00;94373.00;5091025;28;20191;-63
2022/07/31 01:37:32;;;;;;;16.88;12.75;;;;;;;20.49;100.00;94371.63;5091046;28;20200;-63
2022/07/31 01:40:13;;;;;;;14.77;12.95;;;;;;;20.57;100.00;94374.81;5090938;28;20184;-65
2022/07/31 01:42:43;;;;;;;13.60;12.30;;;;;;;20.70;100.00;94376.63;5091209;28;20310;-64
2022/07/31 01:45:13;;;;;;;13.85;12.50;;;;;;;20.84;100.00;94391.16;5090720;28;20218;-64
2022/07/31 01:47:40;;;;;;;14.77;11.88;;;;;;;20.95;100.00;94387.19;5090804;28;20206;-62
2022/07/31 01:50:08;;;;;;;14.02;11.93;;;;;;;21.17;100.00;94409.25;5090693;28;20207;-62
2022/07/31 01:52:35;;;;;;;16.20;12.80;;;;;;;20.95;100.00;94375.03;5090968;28;20200;-62
2022/07/31 01:55:03;;;;;;;14.48;11.85;;;;;;;20.60;100.00;94347.81;5090855;28;20210;-65
2022/07/31 01:57:31;;;;;;;12.88;11.63;;;;;;;20.39;100.00;94345.38;5090748;28;20275;-64
2022/07/31 02:00:00;;;;;;;14.15;11.23;;;;;;;20.36;100.00;94344.00;5090604;28;20184;-64
2022/07/31 02:02:28;;;;;;;13.05;11.75;;;;;;;20.53;100.00;94362.50;5090588;28;20203;-63
2022/07/31 02:04:54;;;;;;;16.95;12.75;;;;;;;20.70;100.00;94367.09;5090589;28;20272;-63
2022/07/31 02:07:21;;;;;;;12.32;11.05;;;;;;;20.91;100.00;94371.25;5090528;28;20303;-63
2022/07/31 02:09:49;;;;;;;12.88;11.50;;;;;;;21.00;100.00;94377.81;5090426;28;20259;-63
2022/07/31 02:12:15;;;;;;;11.88;10.77;;;;;;;21.12;100.00;94378.03;5090752;28;20650;-64
2022/07/31 02:14:43;;;;;;;13.52;12.10;;;;;;;21.21;100.00;94389.78;5072253;28;20188;-64
2022/07/31 02:17:10;;;;;;;12.10;11.00;;;;;;;21.34;100.00;94400.88;5090711;28;20769;-63
2022/07/31 02:19:39;;;;;;;12.30;10.93;;;;;;;21.28;100.00;94409.44;5093908;28;20662;-64
2022/07/31 02:22:05;;;;;;;12.88;10.75;;;;;;;20.84;100.00;94370.47;5083108;22;20308;-63
2022/07/31 02:24:31;;;;;;;15.07;10.48;;;;;;;20.89;100.00;94388.75;5074023;28;20273;-64
2022/07/31 02:26:57;;;;;;;14.77;11.32;;;;;;;20.65;100.00;94377.22;5073532;28;20227;-65
2022/07/31 02:29:23;;;;;;;11.90;10.75;;;;;;;20.54;100.00;94372.63;5073832;28;20627;-64
2022/07/31 02:31:54;;;;;;;10.85;9.85;;;;;;;20.36;100.00;94353.53;5073724;28;20311;-63
2022/07/31 02:34:22;;;;;;;12.88;10.77;;;;;;;20.38;100.00;94354.91;5073626;28;20188;-64
2022/07/31 02:36:48;;;;;;;11.73;10.63;;;;;;;20.55;100.00;94374.22;5073502;28;20299;-65
2022/07/31 02:39:15;;;;;;;11.75;10.27;;;;;;;20.56;100.00;94388.72;5055476;28;20214;-64
2022/07/31 02:41:41;;;;;;;10.90;9.80;;;;;;;20.29;100.00;94361.28;5055688;28;20213;-64
2022/07/31 02:44:10;;;;;;;11.98;10.48;;;;;;;20.33;100.00;94369.41;5073653;28;20679;-64
2022/07/31 02:46:36;;;;;;;10.98;9.88;;;;;;;20.43;100.00;94380.16;5073315;28;20212;-62
2022/07/31 02:49:02;;;;;;;11.38;10.23;;;;;;;20.57;100.00;94387.75;5055326;28;20262;-63
2022/07/31 02:51:28;;;;;;;10.23;9.30;;;;;;;20.66;100.00;94399.50;5055198;28;20209;-63
2022/07/31 02:53:54;;;;;;;12.65;9.77;;;;;;;20.58;100.00;94386.72;5073157;28;20195;-64
2022/07/31 02:56:21;;;;;;;12.77;10.00;;;;;;;20.39;100.00;94371.22;5073585;28;20678;-65
2022/07/31 02:58:46;;;;;;;11.30;10.20;;;;;;;20.28;100.00;94370.00;5073221;28;20600;-63
2022/07/31 03:01:13;;;;;;;14.02;9.98;;;;;;;20.50;100.00;94366.25;5073464;28;20291;-62
2022/07/31 03:03:39;;;;;;;12.18;10.98;;;;;;;20.57;100.00;94369.66;5055146;28;20643;-61
2022/07/31 03:06:04;;;;;;;11.27;10.18;;;;;;;20.71;100.00;94376.41;5073336;28;20231;-64
2022/07/31 03:08:30;;;;;;;13.27;11.88;;;;;;;20.78;100.00;94377.22;5073119;28;20624;-64
2022/07/31 03:10:56;;;;;;;12.88;11.48;;;;;;;20.70;100.00;94363.72;5054882;28;20208;-63
2022/07/31 03:13:24;;;;;;;11.02;9.98;;;;;;;20.74;100.00;94370.06;5073023;28;20201;-64
2022/07/31 03:15:50;;;;;;;15.35;13.85;;;;;;;20.67;100.00;94362.31;5072818;28;20317;-63
2022/07/31 03:18:17;;;;;;;14.30;12.80;;;;;;;20.84;100.00;94373.84;5072857;28;20185;-63
2022/07/31 03:20:44;;;;;;;14.38;10.93;;;;;;;21.10;100.00;94391.16;5073118;28;20209;-63
2022/07/31 03:23:12;;;;;;;13.80;10.52;;;;;;;21.17;100.00;94394.53;5072755;28;20187;-63
2022/07/31 03:25:39;;;;;;;16.70;11.35;;;;;;;21.16;100.00;94398.13;5054705;28;20230;-63
2022/07/31 03:28:05;;;;;;;14.88;11.98;;;;;;;20.65;100.00;94379.00;5072560;28;20203;-63
2022/07/31 03:30:30;;;;;;;13.68;12.27;;;;;;;20.64;100.00;94380.81;5054625;28;20228;-63
2022/07/31 03:32:56;;;;;;;15.48;12.93;;;;;;;20.31;100.00;94364.47;5072716;28;20185;-64
2022/07/31 03:35:25;;;;;;;16.90;14.35;;;;;;;19.82;100.00;94379.34;5072681;28;20220;-65
2022/07/31 03:37:51;;;;;;;16.08;14.38;;;;;;;19.58;100.00;94379.84;5072818;28;20224;-62
2022/07/31 03:40:16;;;;;;;17.13;14.73;;;;;;;19.65;100.00;94380.69;5072512;28;20311;-64
2022/07/31 03:42:43;;;;;;;15.13;13.00;;;;;;;19.55;100.00;94383.63;5072740;28;20617;-63
2022/07/31 03:45:10;;;;;;;14.55;12.82;;;;;;;19.72;100.00;94384.88;5072385;28;20201;-63
2022/07/31 03:47:36;;;;;;;15.88;14.25;;;;;;;19.38;100.00;94390.06;5072723;28;20196;-63
2022/07/31 03:50:02;;;;;;;13.77;12.48;;;;;;;19.44;100.00;94396.22;5072224;28;20280;-63
2022/07/31 03:52:28;;;;;;;13.57;11.63;;;;;;;19.68;100.00;94394.00;5072349;28;20223;-64
2022/07/31 03:54:54;;;;;;;14.77;12.10;;;;;;;19.79;100.00;94398.63;5072419;28;20213;-64
2022/07/31 03:57:21;;;;;;;12.52;11.23;;;;;;;20.12;100.00;94405.69;5072236;28;20287;-64
2022/07/31 03:59:49;;;;;;;11.88;10.52;;;;;;;20.33;100.00;94400.41;5054284;28;20197;-64
2022/07/31 04:02:15;;;;;;;10.95;9.50;;;;;;;20.54;100.00;94411.38;5072100;28;20295;-63
2022/07/31 04:04:41;;;;;;;11.77;10.40;;;;;;;20.71;100.00;94419.53;5072184;28;20258;-63
2022/07/31 04:07:07;;;;;;;11.65;10.30;;;;;;;20.72;100.00;94423.72;5072146;28;20208;-63
2022/07/31 04:09:32;;;;;;;14.25;10.82;;;;;;;20.60;100.00;94423.53;5072031;28;20192;-63
2022/07/31 04:11:58;;;;;;;11.82;10.65;;;;;;;20.55;100.00;94422.50;5071928;28;20205;-64
2022/07/31 04:14:24;;;;;;;13.05;11.77;;;;;;;20.13;100.00;94418.41;5072180;28;20195;-64
2022/07/31 04:16:49;;;;;;;13.00;11.70;;;;;;;19.85;100.00;94405.59;5053849;28;20686;-64
2022/07/31 04:19:15;;;;;;;13.52;12.23;;;;;;;19.54;100.00;94400.06;5079765;22;20659;-63
2022/07/31 04:21:40;;;;;;;14.60;12.95;;;;;;;19.04;100.00;94395.97;5071419;28;20763;-64
2022/07/31 04:24:06;;;;;;;15.88;13.75;;;;;;;18.74;100.00;94411.78;5071840;28;20358;-64
2022/07/31 04:26:32;;;;;;;15.88;14.00;;;;;;;18.51;100.00;94398.28;5071886;28;20209;-61
2022/07/31 04:28:57;;;;;;;17.48;15.10;;;;;;;18.53;100.00;94396.31;5079501;22;20220;-61
2022/07/31 04:31:22;;;;;;;19.90;14.95;;;;;;;18.57;100.00;94400.09;5071744;28;20582;-62
2022/07/31 04:33:49;;;;;;;15.63;13.30;;;;;;;18.39;100.00;94392.78;5071520;28;20258;-61
2022/07/31 04:36:16;;;;;;;15.63;13.45;;;;;;;18.52;100.00;94392.16;5071496;28;20216;-61
2022/07/31 04:38:41;;;;;;;18.88;15.18;;;;;;;18.65;100.00;94392.25;5071677;28;20189;-61
2022/07/31 04:41:07;;;;;;;16.80;15.00;;;;;;;18.56;100.00;94389.03;5070747;28;20235;-60
2022/07/31 04:43:33;;;;;;;18.30;13.93;;;;;;;18.83;100.00;94393.41;5071489;28;20671;-61
2022/07/31 04:45:58;;;;;;;17.65;15.38;;;;;;;18.79;100.00;94396.53;5053146;28;20205;-61
2022/07/31 04:48:23;;;;;;;18.45;14.57;;;;;;;19.00;100.00;94393.94;5071614;28;20181;-66
2022/07/31 04:50:49;;;;;;;19.20;15.10;;;;;;;18.89;100.00;94391.88;5053451;28;20236;-62
2022/07/31 04:53:14;;;;;;;18.20;16.00;;;;;;;18.89;100.00;94389.28;5071434;28;20708;-63
2022/07/31 04:55:41;;;;;;;19.25;14.93;;;;;;;19.00;100.00;94393.94;5071265;28;20204;-63
2022/07/31 04:58:06;;;;;;;17.02;15.07;;;;;;;19.06;100.00;94398.34;5071212;28;20193;-64
2022/07/31 05:00:32;;;;;;;20.77;18.58;;;;;;;19.10;100.00;94400.38;5071137;28;20293;-62
2022/07/31 05:02:57;;;;;;;17.75;14.93;;;;;;;19.13;100.00;94409.47;5071583;28;20196;-62
2022/07/31 05:05:23;;;;;;;15.48;13.82;;;;;;;19.15;100.00;94410.09;5070980;28;20201;-62
2022/07/31 05:07:48;;;;;;;15.20;13.65;;;;;;;19.10;100.00;94415.03;5071550;28;20288;-65
2022/07/31 05:11:21;;;;;;;15.77;14.15;;;;;;;19.13;100.00;94417.22;5071023;28;20314;-64
2022/07/31 05:12:59;;;;;;;14.02;12.45;;;;;;;19.05;100.00;94422.50;5071721;28;20192;-63
2022/07/31 05:15:25;;;;;;;12.65;11.35;;;;;;;19.09;100.00;94411.66;5071122;28;20231;-63
2022/07/31 05:17:50;;;;;;;13.90;12.43;;;;;;;19.17;100.00;94411.50;5071200;28;20192;-65
2022/07/31 05:20:16;;;;;;;12.63;11.43;;;;;;;19.14;100.00;94411.09;5071118;28;20197;-64
2022/07/31 05:22:41;;;;;;;12.25;11.05;;;;;;;19.03;100.00;94409.81;5053112;28;20308;-65
2022/07/31 05:25:07;;;;;;;12.52;11.23;;;;;;;18.87;100.00;94402.38;5071052;28;20247;-63
2022/07/31 05:27:33;;;;;;;12.63;11.13;;;;;;;18.88;100.00;94398.81;5053115;28;20283;-64
2022/07/31 05:29:58;;;;;;;10.77;9.88;;;;;;;18.86;100.00;94410.28;5070807;28;20185;-64
2022/07/31 05:32:24;;;;;;;11.57;10.38;;;;;;;18.99;100.00;94416.31;5070945;28;20288;-63
2022/07/31 05:34:49;;;;;;;11.70;10.50;;;;;;;19.00;100.00;94411.97;5052982;28;20590;-63
2022/07/31 05:37:15;;;;;;;11.95;10.75;;;;;;;19.05;100.00;94407.84;5071085;28;20208;-61
2022/07/31 05:39:40;;;;;;;13.63;11.18;;;;;;;19.18;100.00;94407.16;5070685;28;20272;-61
2022/07/31 05:42:06;;;;;;;12.27;10.98;;;;;;;19.37;100.00;94409.13;5052820;28;20207;-63
2022/07/31 05:44:32;;;;;;;11.85;10.70;;;;;;;19.23;100.00;94420.25;5070582;28;20197;-63
2022/07/31 05:46:58;;;;;;;12.38;10.35;;;;;;;19.18;100.00;94407.97;5070503;28;20223;-63
2022/07/31 05:49:25;;;;;;;12.07;10.88;;;;;;;19.35;100.00;94408.50;5070670;28;20189;-64
2022/07/31 05:51:53;;;;;;;11.10;10.00;;;;;;;19.62;100.00;94404.28;5054130;28;20204;-65
2022/07/31 05:54:18;;;;;;;9.52;8.63;;;;;;;19.45;100.00;94423.63;5074380;28;20188;-65
2022/07/31 05:56:44;;;;;;;12.32;9.98;;;;;;;19.69;100.00;94397.38;5074352;28;20582;-64
2022/07/31 05:59:09;;;;;;;10.45;9.32;;;;;;;19.80;100.00;94420.84;5074107;28;20238;-63
2022/07/31 06:01:35;;;;;;;9.90;8.90;;;;;;;19.77;100.00;94434.13;5074267;28;20228;-61
2022/07/31 06:04:01;;;;;;;10.88;9.35;;;;;;;19.91;100.00;94432.41;5081737;22;20227;-63
2022/07/31 06:06:27;;;;;;;9.77;8.75;;;;;;;19.87;100.00;94433.78;5073835;28;20299;-64
2022/07/31 06:08:52;;;;;;;12.13;9.43;;;;;;;19.84;100.00;94423.81;5074214;28;20623;-65
2022/07/31 06:11:17;;;;;;;13.07;10.98;;;;;;;19.81;100.00;94416.47;5074140;28;20217;-62
2022/07/31 06:13:43;;;;;;;11.32;10.23;;;;;;;19.77;100.00;94417.84;5074165;28;20483;-64
2022/07/31 06:16:13;;;;;;;11.43;10.25;;;;;;;19.79;100.00;94400.41;5073846;28;20209;-63
2022/07/31 06:18:39;;;;;;;10.80;9.75;;;;;;;19.99;100.00;94407.25;5074363;28;20181;-61
2022/07/31 06:21:04;;;;;;;11.93;10.57;;;;;;;19.98;100.00;94428.84;5039300;28;20737;-61
2022/07/31 06:23:30;;;;;;;11.80;10.60;;;;;;;20.20;100.00;94421.03;5073885;28;20709;-62
2022/07/31 06:25:55;;;;;;;13.90;11.07;;;;;;;20.41;100.00;94426.84;5074057;28;20693;-64
2022/07/31 06:28:21;;;;;;;12.63;11.38;;;;;;;20.48;100.00;94422.47;5073970;28;20177;-63
2022/07/31 06:30:46;;;;;;;12.32;10.48;;;;;;;20.27;100.00;94440.72;5073755;28;20729;-60
2022/07/31 06:33:12;;;;;;;13.90;12.30;;;;;;;20.12;100.00;94421.94;5073586;28;20188;-61
2022/07/31 06:35:37;;;;;;;13.60;12.20;;;;;;;20.13;100.00;94413.22;5073636;28;20204;-64
2022/07/31 06:38:03;;;;;;;13.25;11.85;;;;;;;20.17;100.00;94424.75;5073559;28;20177;-63
2022/07/31 06:40:28;;;;;;;13.38;11.90;;;;;;;20.45;100.00;94417.72;5073555;28;20209;-63
2022/07/31 06:42:54;;;;;;;14.10;11.73;;;;;;;20.59;100.00;94440.00;5073618;28;20620;-65
2022/07/31 06:45:19;;;;;;;13.60;11.95;;;;;;;20.70;100.00;94447.19;5073613;28;20236;-62
2022/07/31 06:47:44;;;;;;;13.20;11.70;;;;;;;20.44;100.00;94425.66;5073312;28;20728;-64
2022/07/31 06:50:10;;;;;;;14.55;12.32;;;;;;;20.30;100.00;94432.56;5073218;28;20250;-62
2022/07/31 06:52:42;;;;;;;14.77;13.20;;;;;;;20.40;100.00;94417.50;5073636;28;20242;-62
2022/07/31 06:55:08;;;;;;;18.38;16.35;;;;;;;20.52;100.00;94422.91;5073685;28;20195;-63
2022/07/31 06:57:34;;;;;;;17.55;14.90;;;;;;;20.83;100.00;94413.59;5073267;28;20193;-62
2022/07/31 06:59:59;;;;;;;16.15;13.60;;;;;;;21.03;100.00;94413.63;5073763;28;20199;-63
2022/07/31 07:02:25;;;;;;;14.38;12.88;;;;;;;20.97;100.00;94453.16;5073191;28;20291;-64
2022/07/31 07:04:50;;;;;;;14.35;12.77;;;;;;;20.65;100.00;94454.72;5072745;28;20539;-64
2022/07/31 07:07:15;;;;;;;15.90;13.73;;;;;;;20.65;100.00;94443.59;5073048;28;20205;-65
2022/07/31 07:09:41;;;;;;;17.95;14.82;;;;;;;20.77;100.00;94426.50;5054902;28;20177;-63
2022/07/31 07:12:07;;;;;;;20.55;16.15;;;;;;;20.82;100.00;94427.53;5073131;28;20212;-63
2022/07/31 07:14:32;;;;;;;19.60;17.08;;;;;;;20.87;100.00;94447.59;5073245;28;20222;-62
2022/07/31 07:17:02;;;;;;;16.67;14.93;;;;;;;20.74;100.00;94439.84;5073056;28;20603;-63
2022/07/31 07:19:27;;;;;;;16.95;14.00;;;;;;;20.74;100.00;94437.25;5072951;28;20192;-62
2022/07/31 07:21:53;;;;;;;18.80;14.65;;;;;;;20.73;100.00;94435.66;5073248;28;20201;-62
2022/07/31 07:24:18;;;;;;;17.58;14.68;;;;;;;20.75;100.00;94418.16;5073127;28;20272;-64
2022/07/31 07:26:43;;;;;;;17.00;13.10;;;;;;;20.89;100.00;94435.25;5072903;28;20228;-64
2022/07/31 07:29:09;;;;;;;15.68;14.05;;;;;;;20.87;100.00;94427.72;5073041;28;20188;-65
2022/07/31 07:31:35;;;;;;;15.85;14.15;;;;;;;20.88;100.00;94433.69;5072571;28;20674;-64
2022/07/31 07:34:01;;;;;;;18.40;14.90;;;;;;;20.88;100.00;94425.94;5072805;28;20176;-63
2022/07/31 07:36:27;;;;;;;17.95;14.93;;;;;;;20.99;100.00;94435.66;5072729;28;20276;-61
2022/07/31 07:38:53;;;;;;;16.55;14.40;;;;;;;21.13;100.00;94445.03;5072681;28;20193;-64
2022/07/31 07:41:18;;;;;;;17.02;14.35;;;;;;;21.03;100.00;94444.66;5054701;28;20205;-64
2022/07/31 07:43:44;;;;;;;17.88;15.43;;;;;;;21.03;100.00;94441.28;5073097;28;20708;-65
2022/07/31 07:46:09;;;;;;;17.52;15.02;;;;;;;21.08;100.00;94437.09;5072566;28;20278;-62
2022/07/31 07:48:35;;;;;;;16.25;14.30;;;;;;;21.13;100.00;94431.34;5072608;28;20670;-61
2022/07/31 07:51:00;;;;;;;19.02;15.68;;;;;;;21.30;100.00;94433.31;5072507;28;20231;-64
2022/07/31 07:53:26;;;;;;;17.85;13.82;;;;;;;21.26;100.00;94462.34;5054680;28;20207;-63
2022/07/31 07:55:52;;;;;;;17.92;14.70;;;;;;;21.42;100.00;94400.66;5054322;28;20243;-61
2022/07/31 07:58:18;;;;;;;17.55;15.50;;;;;;;21.57;100.00;94455.56;5054237;28;20193;-61
2022/07/31 08:00:43;;;;;;;17.38;15.48;;;;;;;21.56;100.00;94472.09;5072388;28;20256;-62
2022/07/31 08:03:09;;;;;;;16.75;14.88;;;;;;;21.49;100.00;94452.41;5072248;28;20185;-61
2022/07/31 08:05:34;;;;;;;17.02;14.20;;;;;;;21.58;100.00;94464.91;5072117;28;20209;-63
2022/07/31 08:07:59;;;;;;;15.07;13.50;;;;;;;21.46;100.00;94456.19;5072144;28;20247;-62
2022/07/31 08:10:25;;;;;;;17.80;14.75;;;;;;;21.50;100.00;94443.63;5072142;28;20208;-63
2022/07/31 08:12:53;;;;;;;17.38;14.20;;;;;;;21.50;100.00;94457.38;5072061;28;20189;-63
2022/07/31 08:15:18;;;;;;;19.80;14.68;;;;;;;21.58;100.00;94454.56;5071055;28;20188;-65
2022/07/31 08:17:44;;;;;;;14.40;12.68;;;;;;;21.60;100.00;94491.38;5072116;28;20185;-64
2022/07/31 08:20:10;;;;;;;15.57;12.90;;;;;;;21.77;100.00;94465.09;5072201;28;20647;-61
2022/07/31 08:22:36;;;;;;;13.23;11.60;;;;;;;21.57;100.00;94484.00;5071978;28;20192;-61
2022/07/31 08:25:01;;;;;;;14.23;12.30;;;;;;;21.56;100.00;94469.50;5072117;28;20188;-63
2022/07/31 08:27:27;;;;;;;13.32;11.80;;;;;;;21.70;100.00;94458.13;5071941;28;20185;-63
2022/07/31 08:29:58;;;;;;;12.95;11.18;;;;;;;21.75;100.00;94483.41;5072301;28;20257;-60
2022/07/31 08:32:25;;;;;;;13.25;11.40;;;;;;;21.61;100.00;94499.97;5053601;28;20212;-63
2022/07/31 08:34:51;;;;;;;13.25;10.20;;;;;;;21.62;100.00;94502.34;5071585;28;20181;-62
2022/07/31 08:37:20;;;;;;;12.55;11.25;;;;;;;21.64;100.00;94477.06;5071581;28;20300;-63
2022/07/31 08:39:47;;;;;;;13.25;10.98;;;;;;;21.75;100.00;94499.72;5071917;28;20188;-62
2022/07/31 08:42:13;;;;;;;12.80;11.05;;;;;;;21.79;100.00;94507.91;5071593;28;20205;-66
2022/07/31 08:44:40;;;;;;;12.60;10.80;;;;;;;22.11;100.00;94520.00;5071784;28;20192;-62
2022/07/31 08:47:11;;;;;;;12.52;9.93;;;;;;;22.12;100.00;94507.84;5071443;28;20254;-62
2022/07/31 08:49:40;;;;;;;11.63;10.23;;;;;;;21.94;100.00;94489.59;5053437;28;20196;-62
2022/07/31 08:52:08;;;;;;;12.32;10.05;;;;;;;21.77;100.00;94491.78;5071447;28;20300;-62
2022/07/31 08:54:35;;;;;;;10.57;9.48;;;;;;;21.63;100.00;94475.44;5071748;28;20220;-61
2022/07/31 08:57:02;;;;;;;12.23;9.32;;;;;;;21.74;100.00;94466.28;5071615;28;20227;-61
2022/07/31 08:59:27;;;;;;;11.18;10.07;;;;;;;21.74;100.00;94471.44;5071975;28;20185;-61
2022/07/31 09:01:55;;;;;;;13.70;10.90;;;;;;;21.74;100.00;94467.09;5071316;28;20811;-63
2022/07/31 09:04:22;;;;;;;13.43;10.60;;;;;;;21.83;100.00;94465.09;5071352;28;20253;-63
2022/07/31 09:06:48;;;;;;;11.82;10.48;;;;;;;22.03;100.00;94480.59;5053213;28;20209;-64
2022/07/31 09:09:15;;;;;;;10.73;9.70;;;;;;;22.18;100.00;94509.63;5053285;28;20518;-64
2022/07/31 09:11:52;;;;;;;11.38;9.27;;;;;;;22.33;100.00;94512.75;5053106;28;20268;-61
2022/07/31 09:14:26;;;;;;;10.98;9.88;;;;;;;22.57;100.00;94519.84;5071461;28;20666;-64
2022/07/31 09:16:53;;;;;;;12.93;11.63;;;;;;;22.63;100.00;94521.63;5053031;28;20235;-62
2022/07/31 09:19:19;;;;;;;12.27;10.98;;;;;;;22.56;100.00;94557.91;5071312;28;20192;-65
2022/07/31 09:21:45;;;;;;;14.05;11.52;;;;;;;22.61;100.00;94552.16;5070838;28;20204;-63
2022/07/31 09:24:12;;;;;;;12.57;11.27;;;;;;;22.68;100.00;94565.88;5071124;28;20647;-64
2022/07/31 09:26:39;;;;;;;12.80;10.35;;;;;;;22.70;100.00;94535.38;5070490;28;20228;-63
2022/07/31 09:29:10;;;;;;;11.20;9.98;;;;;;;22.67;100.00;94538.34;5071171;28;20274;-62
2022/07/31 09:31:37;;;;;;;9.90;8.90;;;;;;;22.67;100.00;94540.94;5070902;28;20209;-63
2022/07/31 09:34:03;;;;;;;11.40;9.85;;;;;;;22.55;100.00;94517.44;5052731;28;20200;-65
2022/07/31 09:36:36;;;;;;;13.38;11.07;;;;;;;22.40;100.00;94487.63;5034134;28;20245;-63
2022/07/31 09:39:12;;;;;;;13.40;12.02;;;;;;;22.77;100.00;94511.97;5051064;28;20182;-62
2022/07/31 09:41:48;;;;;;;16.30;14.07;;;;;;;22.96;100.00;94544.81;5050551;28;20228;-64
2022/07/31 09:44:14;;;;;;;16.13;12.57;;;;;;;22.79;100.00;94562.63;5051007;28;20207;-63
2022/07/31 09:46:45;;;;;;;14.13;12.60;;;;;;;22.64;100.00;94572.47;5050640;28;20221;-63
2022/07/31 09:49:11;;;;;;;16.75;14.05;;;;;;;22.81;100.00;94539.88;5050699;28;20250;-64
2022/07/31 09:51:41;;;;;;;16.58;14.30;;;;;;;22.72;100.00;94537.75;5050558;28;20209;-62
2022/07/31 09:54:08;;;;;;;15.70;14.05;;;;;;;22.77;100.00;94541.31;5050764;28;20196;-62
2022/07/31 09:56:34;;;;;;;16.50;14.52;;;;;;;22.85;100.00;94589.53;5050451;28;20205;-61
2022/07/31 09:59:01;;;;;;;15.73;14.13;;;;;;;22.94;100.00;94625.41;5032819;28;20592;-64
2022/07/31 10:01:29;;;;;;;28.90;14.73;;;;;;;22.73;100.00;94615.31;5050426;28;20209;-63
2022/07/31 10:03:58;;;;;;;14.50;13.00;;;;;;;22.72;100.00;94582.63;5050534;28;20197;-64
2022/07/31 10:06:25;;;;;;;15.30;13.73;;;;;;;22.58;100.00;94573.31;5050338;28;20217;-63
2022/07/31 10:08:52;;;;;;;15.70;14.10;;;;;;;22.55;100.00;94574.47;5032444;28;20653;-63
2022/07/31 10:11:23;;;;;;;15.45;13.98;;;;;;;22.41;100.00;94557.38;5032463;28;20687;-60
2022/07/31 10:13:53;;;;;;;15.13;13.57;;;;;;;22.35;100.00;94568.56;5050562;28;20193;-61
2022/07/31 10:16:21;;;;;;;16.10;14.50;;;;;;;22.46;100.00;94551.59;5032619;28;20717;-64
2022/07/31 10:18:55;;;;;;;15.38;13.50;;;;;;;22.33;100.00;94559.38;5050370;28;20328;-65
2022/07/31 10:21:27;;;;;;;17.33;15.10;;;;;;;22.35;100.00;94545.25;5050105;28;20216;-65
2022/07/31 10:23:54;;;;;;;16.60;14.85;;;;;;;22.27;100.00;94514.38;5050393;28;20268;-62
2022/07/31 10:26:20;;;;;;;17.35;15.60;;;;;;;22.36;100.00;94486.47;5050006;28;20309;-64
2022/07/31 10:28:46;;;;;;;16.90;15.15;;;;;;;22.41;100.00;94515.13;5050456;28;20200;-62
2022/07/31 10:31:13;;;;;;;16.25;14.55;;;;;;;22.55;100.00;94532.19;5050112;28;20695;-60
2022/07/31 10:33:38;;;;;;;19.15;16.25;;;;;;;23.09;100.00;94553.28;5050416;28;20196;-64
2022/07/31 10:36:10;;;;;;;17.83;16.00;;;;;;;23.59;100.00;94589.75;5032086;28;20608;-65
2022/07/31 10:38:42;;;;;;;16.27;14.55;;;;;;;23.93;98.34;94656.81;5033040;28;20201;-63
2022/07/31 10:41:30;;;;;;;15.13;13.73;;;;;;;24.09;95.03;94692.69;5035424;28;20205;-61
2022/07/31 10:44:01;;;;;;;13.88;12.57;;;;;;;24.28;95.34;94660.53;5035704;28;20299;-65
2022/07/31 10:46:31;;;;;;;13.93;12.63;;;;;;;24.45;95.25;94648.59;5035248;28;20224;-64
2022/07/31 10:48:58;;;;;;;14.32;13.00;;;;;;;24.59;94.15;94665.63;5053456;28;20255;-64
2022/07/31 10:51:25;;;;;;;14.93;13.38;;;;;;;24.88;92.61;94672.78;5053194;28;20216;-62
2022/07/31 10:54:10;;;;;;;13.43;12.02;;;;;;;24.78;90.33;94698.50;5053508;28;20217;-64
2022/07/31 10:56:43;;;;;;;11.93;10.80;;;;;;;24.90;91.35;94659.56;5035605;28;20232;-63
2022/07/31 10:59:09;;;;;;;11.35;10.35;;;;;;;24.87;88.52;94705.00;5053289;28;20275;-62
2022/07/31 11:01:46;;;;;;;12.65;11.45;;;;;;;25.04;76.52;94702.63;5035348;28;20595;-63
2022/07/31 11:04:11;;;;;;;12.05;10.52;;;;;;;25.27;74.47;94675.94;5053356;28;20181;-63
2022/07/31 11:06:39;;;;;;;11.90;10.80;;;;;;;25.07;72.17;94685.78;5034964;28;20216;-64
2022/07/31 11:09:05;;;;;;;11.82;10.73;;;;;;;25.04;73.50;94661.00;5053331;28;20197;-61